Time;durP1;ratioP1;P1;durP2;ratioP2;P2;SDS_P1;SDS_P2;PMS_P1;PMS_P2;Temp;Humidity;BMP_temperature;BMP_pressure;BME280_temperature;BME280_humidity;BME280_pressure;Samples;Min_cycle;Max_cycle;Signal;HPM_P1;HPM_P2
2021/09/12 00:01:03;;;;;;;12.70;11.65;;;;;;;19.01;57.76;100040.81;4899073;29;20073;-79
2021/09/12 00:03:31;;;;;;;14.52;11.88;;;;;;;19.03;57.75;100045.97;4898488;29;20445;-77
2021/09/12 00:05:57;;;;;;;18.63;11.40;;;;;;;18.93;58.09;100029.28;4898263;29;20041;-80
2021/09/12 00:08:24;;;;;;;12.27;11.18;;;;;;;19.02;57.60;100041.66;4897548;29;20144;-79
2021/09/12 00:10:51;;;;;;;12.90;11.68;;;;;;;18.93;57.92;100039.84;4883705;29;20045;-80
2021/09/12 00:13:18;;;;;;;19.67;12.75;;;;;;;18.91;58.01;100036.47;4880782;29;20507;-78
2021/09/12 00:15:45;;;;;;;18.50;11.32;;;;;;;18.89;58.03;100049.00;4879504;29;20068;-78
2021/09/12 00:18:12;;;;;;;12.30;11.20;;;;;;;18.88;58.01;100047.31;4878985;29;20053;-79
2021/09/12 00:20:39;;;;;;;11.95;10.85;;;;;;;18.90;58.05;100048.00;4879506;29;20049;-79
2021/09/12 00:23:06;;;;;;;15.55;10.70;;;;;;;18.79;58.44;100049.78;4878727;29;20484;-80
2021/09/12 00:25:33;;;;;;;12.40;11.32;;;;;;;18.81;58.34;100049.69;4879229;29;20101;-79
2021/09/12 00:27:59;;;;;;;13.52;10.98;;;;;;;18.76;58.62;100055.34;4879127;29;20050;-79
2021/09/12 00:30:26;;;;;;;15.38;9.60;;;;;;;18.64;59.04;100053.72;4879442;29;20052;-78
2021/09/12 00:32:53;;;;;;;12.55;11.25;;;;;;;18.59;59.30;100053.31;4879002;29;20394;-79
2021/09/12 00:35:19;;;;;;;15.35;11.55;;;;;;;18.54;59.56;100047.59;4879202;29;20049;-77
2021/09/12 00:37:50;;;;;;;13.32;11.52;;;;;;;18.57;59.67;100050.78;4879279;29;20056;-81
2021/09/12 00:40:23;;;;;;;16.13;13.02;;;;;;;18.69;59.10;100051.56;4878780;29;20056;-78
2021/09/12 00:42:52;;;;;;;12.65;10.77;;;;;;;18.61;59.33;100045.25;4879330;29;20049;-80
2021/09/12 00:45:20;;;;;;;16.70;10.98;;;;;;;18.62;59.04;100050.41;4878604;29;20045;-78
2021/09/12 00:47:47;;;;;;;14.68;11.20;;;;;;;18.65;59.06;100049.31;4878752;29;20503;-80
2021/09/12 00:50:15;;;;;;;14.88;10.75;;;;;;;18.66;58.89;100043.88;4878717;29;20052;-78
2021/09/12 00:52:46;;;;;;;13.05;11.82;;;;;;;18.63;58.94;100041.50;4878583;29;20105;-79
2021/09/12 00:55:14;;;;;;;12.00;9.77;;;;;;;18.79;57.93;100039.22;4878686;29;20136;-78
2021/09/12 00:57:43;;;;;;;12.50;10.68;;;;;;;18.76;58.17;100036.03;4878994;29;20052;-78
2021/09/12 01:00:11;;;;;;;11.43;9.90;;;;;;;18.67;58.80;100042.09;4878343;29;20037;-78
2021/09/12 01:02:38;;;;;;;15.10;11.15;;;;;;;18.63;58.90;100046.78;4879166;29;20400;-78
2021/09/12 01:05:07;;;;;;;14.43;12.77;;;;;;;18.56;58.96;100043.00;4878928;29;20449;-78
2021/09/12 01:07:34;;;;;;;16.90;11.20;;;;;;;18.65;58.76;100046.66;4878218;29;20061;-78
2021/09/12 01:10:06;;;;;;;30.95;10.40;;;;;;;18.65;58.68;100042.22;4878846;29;20504;-79
2021/09/12 01:12:33;;;;;;;12.38;10.20;;;;;;;18.61;58.70;100046.09;4881530;29;20041;-78
2021/09/12 01:15:00;;;;;;;11.38;10.27;;;;;;;18.52;59.20;100047.72;4882050;29;20052;-79
2021/09/12 01:17:29;;;;;;;11.77;10.57;;;;;;;18.47;59.61;100043.78;4882246;29;20045;-79
2021/09/12 01:19:56;;;;;;;9.68;8.77;;;;;;;18.42;59.62;100046.81;4881959;29;20480;-79
2021/09/12 01:22:24;;;;;;;13.20;10.02;;;;;;;18.35;59.69;100047.50;4881108;29;20093;-78
2021/09/12 01:24:52;;;;;;;12.05;10.88;;;;;;;18.40;59.59;100042.66;4881797;29;20049;-78
2021/09/12 01:27:19;;;;;;;15.63;10.13;;;;;;;18.37;59.63;100050.81;4881452;29;20041;-78
2021/09/12 01:29:46;;;;;;;14.55;10.52;;;;;;;18.03;61.00;100051.06;4881867;29;20393;-78
2021/09/12 01:32:14;;;;;;;11.90;10.63;;;;;;;17.88;61.66;100047.91;4896006;29;20049;-79
2021/09/12 01:34:41;;;;;;;17.90;11.60;;;;;;;17.72;62.13;100043.06;4881342;29;20049;-78
2021/09/12 01:37:08;;;;;;;11.00;10.02;;;;;;;17.62;62.91;100041.28;4881542;29;20456;-77
2021/09/12 01:39:35;;;;;;;13.77;9.77;;;;;;;17.69;62.66;100048.56;4881300;29;20076;-78
2021/09/12 01:42:01;;;;;;;12.13;10.77;;;;;;;17.74;62.27;100050.88;4881681;29;20440;-78
2021/09/12 01:44:28;;;;;;;11.60;10.40;;;;;;;17.80;62.07;100045.09;4881028;29;20559;-79
2021/09/12 01:46:56;;;;;;;17.65;10.80;;;;;;;17.78;62.13;100045.19;4881968;29;20053;-78
2021/09/12 01:49:24;;;;;;;13.50;9.70;;;;;;;17.75;62.28;100048.09;4880930;29;20085;-80
2021/09/12 01:51:52;;;;;;;10.65;9.55;;;;;;;17.72;62.52;100040.44;4881113;29;20096;-80
2021/09/12 01:54:19;;;;;;;10.27;9.20;;;;;;;17.62;62.76;100041.28;4880988;29;20045;-78
2021/09/12 01:56:46;;;;;;;10.48;9.40;;;;;;;17.55;63.18;100035.69;4881260;29;20073;-80
2021/09/12 01:59:13;;;;;;;16.45;11.40;;;;;;;17.56;62.89;100032.09;4881219;29;20065;-79
2021/09/12 02:01:40;;;;;;;12.05;9.95;;;;;;;17.62;62.66;100036.00;4880867;29;20393;-78
2021/09/12 02:04:07;;;;;;;11.57;10.15;;;;;;;17.57;63.26;100038.19;4881411;29;20052;-78
2021/09/12 02:06:33;;;;;;;13.32;11.30;;;;;;;17.44;63.50;100033.09;4880600;29;20053;-78
2021/09/12 02:09:00;;;;;;;12.40;11.00;;;;;;;17.45;63.46;100034.78;4881130;29;20033;-78
2021/09/12 02:11:27;;;;;;;17.92;10.82;;;;;;;17.47;63.51;100038.09;4880611;29;20041;-78
2021/09/12 02:13:54;;;;;;;12.40;10.15;;;;;;;17.47;63.52;100038.09;4881058;29;20101;-78
2021/09/12 02:16:22;;;;;;;13.93;10.98;;;;;;;17.47;63.32;100032.84;4880455;29;20041;-78
2021/09/12 02:18:48;;;;;;;11.43;10.20;;;;;;;17.42;63.44;100035.03;4880509;29;20048;-79
2021/09/12 02:21:17;;;;;;;11.77;10.63;;;;;;;17.32;63.93;100034.94;4880688;29;20445;-78
2021/09/12 02:23:44;;;;;;;13.40;10.82;;;;;;;17.14;64.63;100037.25;4879383;29;20049;-78
2021/09/12 02:26:11;;;;;;;10.50;9.48;;;;;;;17.26;64.30;100046.00;4880653;29;20097;-78
2021/09/12 02:28:38;;;;;;;11.35;10.20;;;;;;;17.25;64.18;100047.75;4880027;29;20097;-79
2021/09/12 02:31:04;;;;;;;12.10;10.57;;;;;;;17.23;64.33;100044.41;4880623;29;20473;-77
2021/09/12 02:33:31;;;;;;;15.07;11.40;;;;;;;17.25;64.09;100045.13;4880354;29;20132;-79
2021/09/12 02:35:58;;;;;;;13.10;11.70;;;;;;;17.24;64.22;100047.88;4879268;29;20053;-78
2021/09/12 02:38:25;;;;;;;14.52;12.82;;;;;;;17.09;64.87;100047.31;4880109;29;20449;-79
2021/09/12 02:40:52;;;;;;;14.10;11.10;;;;;;;17.16;64.74;100045.06;4879367;29;20120;-78
2021/09/12 02:43:19;;;;;;;17.17;10.27;;;;;;;17.19;64.41;100040.34;4880042;29;20049;-78
2021/09/12 02:45:45;;;;;;;12.10;11.00;;;;;;;17.22;64.33;100047.19;4880446;29;20385;-79
2021/09/12 02:48:12;;;;;;;15.90;10.10;;;;;;;17.20;64.36;100047.28;4881183;29;20039;-79
2021/09/12 02:50:39;;;;;;;13.52;11.80;;;;;;;17.19;64.46;100040.34;4881906;29;20045;-78
2021/09/12 02:53:05;;;;;;;13.13;9.93;;;;;;;17.21;64.49;100048.16;4880353;29;20059;-77
2021/09/12 02:55:33;;;;;;;11.43;10.43;;;;;;;17.23;64.42;100040.97;4879956;29;20049;-78
2021/09/12 02:58:00;;;;;;;13.60;11.65;;;;;;;17.21;64.21;100042.88;4880072;29;20049;-78
2021/09/12 03:00:27;;;;;;;12.38;9.73;;;;;;;17.19;64.67;100047.44;4879517;29;20037;-78
2021/09/12 03:02:54;;;;;;;13.98;9.77;;;;;;;17.19;64.56;100044.78;4894330;29;20074;-78
2021/09/12 03:05:22;;;;;;;11.90;10.02;;;;;;;17.18;64.46;100038.69;4879720;29;20080;-79
2021/09/12 03:07:48;;;;;;;11.05;10.00;;;;;;;17.26;64.28;100044.19;4879456;29;20103;-79
2021/09/12 03:10:15;;;;;;;12.05;9.35;;;;;;;17.17;64.51;100042.28;4879567;29;20649;-79
2021/09/12 03:12:42;;;;;;;10.32;9.32;;;;;;;17.25;64.42;100039.84;4879722;29;20497;-78
2021/09/12 03:15:09;;;;;;;12.02;10.18;;;;;;;17.22;64.21;100036.66;4879964;29;20056;-79
2021/09/12 03:17:35;;;;;;;11.23;10.15;;;;;;;17.30;64.04;100034.22;4879365;29;20076;-78
2021/09/12 03:20:03;;;;;;;14.10;11.07;;;;;;;17.31;64.47;100035.06;4879553;29;20492;-79
2021/09/12 03:22:30;;;;;;;12.05;10.65;;;;;;;17.47;63.48;100031.06;4879319;29;20100;-78
2021/09/12 03:24:57;;;;;;;11.80;10.70;;;;;;;17.62;62.91;100034.22;4879246;29;20049;-78
2021/09/12 03:27:23;;;;;;;15.15;10.85;;;;;;;17.77;62.32;100037.41;4879204;29;20093;-78
2021/09/12 03:29:50;;;;;;;12.05;10.43;;;;;;;17.83;61.94;100039.53;4879498;29;20077;-78
2021/09/12 03:32:17;;;;;;;12.60;11.32;;;;;;;17.97;61.35;100033.13;4879381;29;20041;-78
2021/09/12 03:34:44;;;;;;;14.52;9.98;;;;;;;18.08;60.98;100032.22;4879234;29;20052;-78
2021/09/12 03:37:11;;;;;;;11.73;10.57;;;;;;;18.07;60.76;100036.66;4879529;29;20476;-79
2021/09/12 03:39:37;;;;;;;12.18;11.00;;;;;;;18.08;60.90;100040.97;4878291;29;20056;-78
2021/09/12 03:42:06;;;;;;;12.90;9.88;;;;;;;18.15;60.54;100036.00;4879367;29;20445;-79
2021/09/12 03:44:32;;;;;;;12.88;11.20;;;;;;;18.05;60.98;100036.75;4879092;29;20049;-79
2021/09/12 03:46:59;;;;;;;12.45;11.05;;;;;;;17.92;61.51;100032.66;4879349;29;20044;-79
2021/09/12 03:49:27;;;;;;;11.45;10.25;;;;;;;17.87;61.76;100038.31;4878842;29;20056;-78
2021/09/12 03:51:54;;;;;;;12.20;10.68;;;;;;;17.76;62.07;100031.31;4879062;29;20045;-78
2021/09/12 03:54:21;;;;;;;12.00;10.52;;;;;;;17.67;62.53;100039.09;4879163;29;20453;-78
2021/09/12 03:56:48;;;;;;;12.00;10.63;;;;;;;17.64;62.63;100029.66;4877851;29;20407;-79
2021/09/12 03:59:15;;;;;;;12.63;11.43;;;;;;;17.62;62.86;100031.56;4879759;29;20041;-79
2021/09/12 04:01:41;;;;;;;17.15;10.23;;;;;;;17.59;62.99;100026.56;4896384;29;20049;-78
2021/09/12 04:04:08;;;;;;;13.98;10.85;;;;;;;17.71;62.72;100025.56;4881629;29;20045;-76
2021/09/12 04:06:35;;;;;;;11.77;10.68;;;;;;;17.75;62.43;100024.38;4878601;29;21324;-77
2021/09/12 04:09:02;;;;;;;16.98;10.73;;;;;;;17.79;62.44;100031.06;4879333;29;20342;-78
2021/09/12 04:11:29;;;;;;;11.77;10.45;;;;;;;17.69;62.49;100031.94;4878914;29;20457;-78
2021/09/12 04:13:56;;;;;;;12.00;10.75;;;;;;;17.69;62.42;100024.84;4879263;29;20112;-78
2021/09/12 04:16:22;;;;;;;11.30;9.77;;;;;;;17.69;62.80;100027.50;4878567;29;20085;-78
2021/09/12 04:18:49;;;;;;;17.00;11.05;;;;;;;17.61;62.62;100027.28;4878926;29;20472;-78
2021/09/12 04:21:16;;;;;;;13.30;11.10;;;;;;;17.55;62.94;100031.25;4887691;29;20081;-77
2021/09/12 04:23:43;;;;;;;12.18;10.85;;;;;;;17.66;62.79;100030.38;4881233;29;20053;-78
2021/09/12 04:26:09;;;;;;;12.88;11.70;;;;;;;17.61;63.08;100029.06;4879260;29;20045;-78
2021/09/12 04:28:36;;;;;;;14.40;11.63;;;;;;;17.44;63.76;100027.84;4878782;29;20087;-78
2021/09/12 04:31:03;;;;;;;12.38;11.18;;;;;;;17.40;64.19;100031.69;4879675;29;20496;-79
2021/09/12 04:33:30;;;;;;;12.63;11.02;;;;;;;17.29;64.45;100036.03;4879403;29;20097;-79
2021/09/12 04:35:56;;;;;;;16.58;11.75;;;;;;;17.20;65.03;100038.56;4879828;29;20097;-80
2021/09/12 04:38:23;;;;;;;14.35;11.52;;;;;;;17.17;65.22;100037.03;4878871;29;20045;-78
2021/09/12 04:40:50;;;;;;;16.08;13.35;;;;;;;17.12;65.53;100039.19;4878521;29;20071;-78
2021/09/12 04:43:16;;;;;;;12.30;11.13;;;;;;;16.99;66.37;100028.81;4872124;29;20116;-79
2021/09/12 04:45:43;;;;;;;14.38;10.75;;;;;;;16.91;66.29;100025.09;4877767;29;20140;-79
2021/09/12 04:48:10;;;;;;;14.70;11.88;;;;;;;16.97;66.27;100030.72;4881642;29;20041;-80
2021/09/12 04:50:37;;;;;;;14.32;12.30;;;;;;;16.99;66.05;100027.94;4882061;29;20045;-80
2021/09/12 04:53:04;;;;;;;13.02;11.20;;;;;;;16.96;65.93;100028.22;4881699;29;20053;-78
2021/09/12 04:55:31;;;;;;;21.73;11.27;;;;;;;17.07;65.18;100033.44;4881999;29;20116;-82
2021/09/12 04:57:58;;;;;;;13.20;11.10;;;;;;;17.31;63.92;100035.06;4881879;29;20493;-82
2021/09/12 05:00:25;;;;;;;11.90;10.57;;;;;;;17.40;63.76;100034.31;4881873;29;20044;-82
2021/09/12 05:02:52;;;;;;;12.77;11.05;;;;;;;17.40;63.68;100029.03;4881789;29;20040;-82
2021/09/12 05:05:19;;;;;;;13.70;10.63;;;;;;;17.39;63.54;100036.13;4881439;29;20052;-82
2021/09/12 05:07:46;;;;;;;11.95;10.43;;;;;;;17.44;63.63;100039.22;4881834;29;20056;-83
2021/09/12 05:10:13;;;;;;;11.77;10.57;;;;;;;17.53;63.16;100048.16;4880051;29;20049;-81
2021/09/12 05:12:39;;;;;;;12.55;11.25;;;;;;;17.58;62.95;100045.13;4878115;29;20045;-83
2021/09/12 05:15:07;;;;;;;11.50;10.30;;;;;;;17.66;62.81;100046.19;4881218;29;20476;-83
2021/09/12 05:17:34;;;;;;;34.28;14.48;;;;;;;17.70;63.03;100044.13;4881926;29;20045;-83
2021/09/12 05:20:00;;;;;;;14.38;10.95;;;;;;;17.78;62.59;100047.81;4881765;29;20041;-82
2021/09/12 05:22:27;;;;;;;11.98;10.55;;;;;;;17.86;62.32;100049.00;4880536;29;20112;-84
2021/09/12 05:24:54;;;;;;;13.13;10.63;;;;;;;17.87;62.37;100051.50;4880822;29;20056;-81
2021/09/12 05:27:20;;;;;;;13.73;12.25;;;;;;;18.18;61.12;100057.69;4880398;29;20422;-83
2021/09/12 05:29:47;;;;;;;18.60;16.73;;;;;;;18.31;60.54;100060.09;4882125;29;20101;-79
2021/09/12 05:32:14;;;;;;;15.55;12.63;;;;;;;18.43;60.53;100063.50;4881010;29;20061;-79
2021/09/12 05:34:41;;;;;;;18.23;14.82;;;;;;;18.52;60.05;100058.25;4882396;29;20498;-81
2021/09/12 05:37:08;;;;;;;21.25;16.55;;;;;;;18.54;59.74;100063.44;4881481;29;20090;-79
2021/09/12 05:39:35;;;;;;;22.10;19.75;;;;;;;18.76;59.33;100059.81;4882094;29;20103;-81
2021/09/12 05:42:03;;;;;;;22.45;19.95;;;;;;;18.81;59.14;100069.00;4880108;29;20049;-84
2021/09/12 05:44:29;;;;;;;32.47;16.73;;;;;;;18.95;60.06;100066.94;4881837;29;20166;-83
2021/09/12 05:46:58;;;;;;;28.33;14.65;;;;;;;18.87;60.43;100070.25;4881605;29;20045;-82
2021/09/12 05:49:25;;;;;;;25.85;15.85;;;;;;;18.94;60.89;100074.03;4881392;29;20077;-84
2021/09/12 05:51:52;;;;;;;18.08;16.23;;;;;;;19.06;60.51;100067.66;4881751;29;20045;-82
2021/09/12 05:54:18;;;;;;;22.77;15.88;;;;;;;19.11;61.36;100068.09;4881177;29;20069;-83
2021/09/12 05:56:48;;;;;;;18.00;15.23;;;;;;;19.33;59.21;100072.31;4881376;29;20056;-84
2021/09/12 05:59:15;;;;;;;20.70;15.20;;;;;;;19.37;60.53;100073.69;4880629;29;20123;-83
2021/09/12 06:01:41;;;;;;;19.25;16.05;;;;;;;19.47;59.45;100075.53;4881483;29;20041;-82
2021/09/12 06:04:09;;;;;;;19.73;17.20;;;;;;;19.43;59.20;100079.41;4880977;29;20045;-85
2021/09/12 06:06:36;;;;;;;24.17;17.17;;;;;;;19.48;60.10;100077.19;4881074;29;20465;-85
2021/09/12 06:09:03;;;;;;;19.85;17.25;;;;;;;19.59;59.16;100074.44;4881312;29;20088;-84
2021/09/12 06:11:31;;;;;;;18.60;16.33;;;;;;;19.73;59.08;100079.31;4880206;29;20113;-77
2021/09/12 06:13:58;;;;;;;23.85;20.73;;;;;;;19.68;57.72;100078.91;4871846;29;20117;-76
2021/09/12 06:16:25;;;;;;;21.20;17.88;;;;;;;19.57;57.08;100073.72;4879105;29;20041;-77
2021/09/12 06:18:51;;;;;;;21.13;19.05;;;;;;;19.34;57.54;100081.91;4879875;29;20049;-76
2021/09/12 06:21:18;;;;;;;25.40;19.20;;;;;;;19.31;57.67;100076.91;4879157;29;20045;-79
2021/09/12 06:23:45;;;;;;;22.33;19.75;;;;;;;19.76;56.10;100079.06;4879962;29;20041;-78
2021/09/12 06:26:12;;;;;;;29.75;21.40;;;;;;;19.82;55.36;100078.50;4877491;29;20044;-77
2021/09/12 06:28:38;;;;;;;31.67;22.75;;;;;;;20.00;55.22;100078.63;4879489;29;20619;-77
2021/09/12 06:31:05;;;;;;;22.20;20.10;;;;;;;20.23;55.56;100081.78;4879753;29;20049;-76
2021/09/12 06:33:32;;;;;;;25.77;23.27;;;;;;;20.38;54.50;100076.88;4877580;29;20053;-78
2021/09/12 06:35:59;;;;;;;23.08;20.83;;;;;;;20.41;54.11;100087.19;4879425;29;20049;-77
2021/09/12 06:38:26;;;;;;;26.55;22.05;;;;;;;20.51;55.10;100092.47;4879008;29;20404;-78
2021/09/12 06:40:52;;;;;;;27.25;21.65;;;;;;;20.52;54.70;100092.34;4879646;29;20049;-78
2021/09/12 06:43:20;;;;;;;27.92;25.02;;;;;;;20.67;53.60;100092.69;4878108;29;20045;-77
2021/09/12 06:45:48;;;;;;;34.17;27.40;;;;;;;20.73;52.95;100092.13;4879733;29;20053;-76
2021/09/12 06:48:15;;;;;;;29.40;26.20;;;;;;;20.71;53.13;100088.75;4877570;29;20044;-77
2021/09/12 06:50:42;;;;;;;29.65;22.80;;;;;;;20.82;53.02;100090.38;4877486;29;20045;-76
2021/09/12 06:53:08;;;;;;;31.83;23.52;;;;;;;20.81;53.63;100088.72;4879056;29;20493;-76
2021/09/12 06:55:35;;;;;;;29.88;26.15;;;;;;;20.45;54.13;100093.00;4878786;29;20045;-77
2021/09/12 06:58:02;;;;;;;29.52;24.08;;;;;;;20.82;53.50;100085.94;4879242;29;20041;-77
2021/09/12 07:00:29;;;;;;;26.33;22.38;;;;;;;21.01;53.84;100084.19;4878842;29;20390;-75
2021/09/12 07:02:55;;;;;;;26.85;23.77;;;;;;;20.83;53.30;100082.31;4893493;29;20071;-75
2021/09/12 07:05:24;;;;;;;27.05;24.17;;;;;;;21.00;52.94;100082.50;4874936;29;20045;-74
2021/09/12 07:07:50;;;;;;;26.58;23.88;;;;;;;21.11;52.31;100080.50;4878608;29;20065;-76
2021/09/12 07:10:18;;;;;;;26.60;24.05;;;;;;;20.92;52.18;100092.00;4878367;29;20049;-73
2021/09/12 07:12:46;;;;;;;29.55;22.10;;;;;;;20.80;52.92;100093.19;4877489;29;20041;-76
2021/09/12 07:15:14;;;;;;;57.15;25.05;;;;;;;20.88;52.74;100089.84;4874891;29;20045;-76
2021/09/12 07:17:41;;;;;;;38.55;23.20;;;;;;;20.83;52.49;100098.22;4878812;29;20563;-75
2021/09/12 07:20:08;;;;;;;22.60;20.45;;;;;;;20.65;53.11;100099.94;4878592;29;20060;-74
2021/09/12 07:22:35;;;;;;;22.33;20.10;;;;;;;20.92;52.90;100102.63;4878074;29;20105;-76
2021/09/12 07:25:03;;;;;;;23.55;19.88;;;;;;;20.89;53.41;100102.94;4876034;29;20053;-75
2021/09/12 07:27:29;;;;;;;23.38;21.00;;;;;;;21.09;53.10;100100.16;4878823;29;20087;-75
2021/09/12 07:30:10;;;;;;;24.08;18.67;;;;;;;21.21;53.22;100106.13;4879024;29;20056;-74
2021/09/12 07:32:37;;;;;;;27.38;22.13;;;;;;;21.25;52.96;100097.69;4878977;29;20061;-75
2021/09/12 07:35:04;;;;;;;24.73;20.48;;;;;;;21.28;52.49;100108.00;4879003;29;20488;-75
2021/09/12 07:37:31;;;;;;;34.05;19.27;;;;;;;21.73;51.34;100101.84;4878401;29;20073;-77
2021/09/12 07:39:58;;;;;;;22.60;20.23;;;;;;;21.44;52.09;100110.03;4879187;29;20053;-76
2021/09/12 07:42:28;;;;;;;30.55;18.13;;;;;;;21.82;51.33;100108.06;4878428;29;20065;-78
2021/09/12 07:44:55;;;;;;;21.00;18.88;;;;;;;21.59;52.13;100113.84;4878492;29;20500;-74
2021/09/12 07:47:21;;;;;;;20.30;17.92;;;;;;;21.60;52.07;100114.69;4877286;29;20041;-76
2021/09/12 07:49:48;;;;;;;18.65;16.77;;;;;;;21.55;51.62;100114.28;4878798;29;20449;-76
2021/09/12 07:52:15;;;;;;;17.20;15.68;;;;;;;21.58;51.64;100119.31;4878614;29;20446;-75
2021/09/12 07:54:42;;;;;;;19.25;16.35;;;;;;;21.65;51.24;100115.88;4876004;29;20093;-77
2021/09/12 07:57:10;;;;;;;25.08;16.95;;;;;;;21.67;50.82;100118.38;4869157;29;20037;-76
2021/09/12 07:59:37;;;;;;;17.02;15.38;;;;;;;21.85;50.39;100116.56;4878536;29;20073;-78
2021/09/12 08:02:04;;;;;;;16.20;14.25;;;;;;;21.90;49.56;100119.63;4877021;29;20052;-76
2021/09/12 08:04:31;;;;;;;15.10;13.65;;;;;;;22.19;49.19;100122.03;4874391;29;20037;-75
2021/09/12 08:06:59;;;;;;;18.17;15.43;;;;;;;22.25;49.55;100125.88;4877571;29;20101;-76
2021/09/12 08:09:25;;;;;;;16.92;14.77;;;;;;;21.88;50.74;100121.56;4874927;29;20052;-74
2021/09/12 08:11:52;;;;;;;16.75;14.95;;;;;;;22.11;50.31;100132.59;4877951;29;20160;-75
2021/09/12 08:14:19;;;;;;;17.88;15.77;;;;;;;22.28;50.40;100130.06;4877871;29;20064;-76
2021/09/12 08:16:46;;;;;;;17.13;15.63;;;;;;;22.59;50.05;100130.44;4877530;29;20049;-76
2021/09/12 08:19:13;;;;;;;18.27;15.55;;;;;;;22.73;49.32;100129.84;4877744;29;20489;-76
2021/09/12 08:21:42;;;;;;;19.00;16.85;;;;;;;22.59;49.85;100130.44;4879709;29;20049;-77
2021/09/12 08:24:09;;;;;;;18.23;16.33;;;;;;;22.37;49.99;100131.75;4881814;29;20076;-76
2021/09/12 08:26:36;;;;;;;20.10;16.35;;;;;;;22.38;49.37;100142.25;4881534;29;20097;-76
2021/09/12 08:29:03;;;;;;;17.27;15.75;;;;;;;22.55;48.85;100145.03;4881817;29;20052;-76
2021/09/12 08:31:30;;;;;;;17.63;15.95;;;;;;;22.62;49.07;100138.91;4881711;29;20073;-76
2021/09/12 08:33:56;;;;;;;20.23;18.17;;;;;;;22.41;49.88;100139.28;4882001;29;20088;-77
2021/09/12 08:36:23;;;;;;;17.60;15.80;;;;;;;22.72;49.18;100141.47;4881523;29;20066;-78
2021/09/12 08:38:50;;;;;;;17.92;15.82;;;;;;;22.59;49.96;100146.38;4878754;29;20071;-78
2021/09/12 08:41:18;;;;;;;18.75;15.93;;;;;;;22.75;49.22;100147.31;4881651;29;20090;-76
2021/09/12 08:43:47;;;;;;;20.90;17.60;;;;;;;22.80;49.28;100144.19;4881069;29;21091;-77
2021/09/12 08:46:15;;;;;;;23.33;18.25;;;;;;;22.67;49.58;100143.75;4879548;29;20496;-79
2021/09/12 08:48:43;;;;;;;23.75;18.13;;;;;;;23.06;48.48;100145.97;4880755;29;20476;-79
2021/09/12 08:51:10;;;;;;;23.17;17.08;;;;;;;23.22;47.82;100148.69;4881022;29;20048;-79
2021/09/12 08:53:37;;;;;;;21.50;15.23;;;;;;;23.46;46.68;100139.97;4871056;29;20500;-79
2021/09/12 08:56:04;;;;;;;25.00;17.63;;;;;;;22.96;47.36;100138.97;4880736;29;20108;-78
2021/09/12 08:58:32;;;;;;;15.57;13.98;;;;;;;23.17;47.08;100145.69;4878762;29;20052;-77
2021/09/12 09:01:00;;;;;;;19.02;17.10;;;;;;;23.11;47.82;100147.16;4880642;29;20045;-78
2021/09/12 09:03:41;;;;;;;14.95;13.50;;;;;;;23.19;46.84;100149.88;4879687;29;20068;-77
2021/09/12 09:06:14;;;;;;;16.67;14.40;;;;;;;23.49;46.10;100131.69;4880597;29;20536;-84
2021/09/12 09:08:55;;;;;;;15.82;14.32;;;;;;;23.42;47.00;100142.13;4894894;29;20053;-81
2021/09/12 09:11:34;;;;;;;20.73;16.63;;;;;;;23.48;46.72;100128.16;4880704;29;20104;-79
2021/09/12 09:14:23;;;;;;;16.85;15.00;;;;;;;23.65;46.83;100130.88;4880790;29;20114;-78
2021/09/12 09:16:51;;;;;;;17.35;15.27;;;;;;;23.74;46.58;100124.59;4889095;29;20073;-79
2021/09/12 09:19:19;;;;;;;18.70;16.65;;;;;;;23.76;46.09;100119.94;4880793;29;20052;-79
2021/09/12 09:21:48;;;;;;;24.38;15.43;;;;;;;23.97;46.34;100133.59;4879893;29;20045;-79
2021/09/12 09:24:25;;;;;;;19.42;16.17;;;;;;;23.76;46.88;100122.63;4880115;29;20041;-78
2021/09/12 09:27:01;;;;;;;22.08;14.95;;;;;;;23.73;46.12;100128.25;4880210;29;20049;-79
2021/09/12 09:29:30;;;;;;;17.00;15.25;;;;;;;24.10;45.21;100118.97;4880159;29;20041;-79
2021/09/12 09:32:08;;;;;;;15.52;14.07;;;;;;;24.42;44.02;100112.78;4893456;29;20052;-80
2021/09/12 09:34:39;;;;;;;24.02;15.43;;;;;;;24.35;44.97;100123.31;4880466;29;20105;-79
2021/09/12 09:37:13;;;;;;;21.67;16.02;;;;;;;24.29;44.78;100123.94;4879712;29;20056;-80
2021/09/12 09:39:44;;;;;;;17.55;15.40;;;;;;;24.05;45.62;100120.28;4880497;29;20044;-80
2021/09/12 09:42:33;;;;;;;17.65;16.15;;;;;;;24.09;45.58;100118.13;4880136;29;20041;-80
2021/09/12 09:45:05;;;;;;;17.40;15.80;;;;;;;24.36;45.23;100111.63;4879998;29;20041;-79
2021/09/12 09:47:32;;;;;;;17.33;15.52;;;;;;;24.35;45.21;100112.66;4878877;29;20489;-85
2021/09/12 09:50:17;;;;;;;17.80;15.13;;;;;;;24.24;45.73;100107.63;4886453;29;20080;-82
2021/09/12 09:52:46;;;;;;;17.95;14.82;;;;;;;24.69;44.69;100104.41;4880716;29;20061;-80
2021/09/12 09:55:16;;;;;;;16.63;14.80;;;;;;;24.60;44.87;100113.41;4877498;29;20484;-82
2021/09/12 09:57:44;;;;;;;15.52;14.05;;;;;;;24.84;44.30;100112.50;4883728;29;20298;-83
2021/09/12 10:00:11;;;;;;;15.25;13.02;;;;;;;25.04;44.18;100108.44;4891803;29;20040;-84
2021/09/12 10:02:39;;;;;;;19.88;15.77;;;;;;;24.75;44.39;100108.22;4890457;29;20046;-80
2021/09/12 10:05:09;;;;;;;16.88;14.18;;;;;;;24.80;44.61;100108.53;4882365;29;20560;-82
2021/09/12 10:07:36;;;;;;;15.35;13.90;;;;;;;24.93;43.58;100100.81;4891304;29;20511;-80
2021/09/12 10:10:10;;;;;;;14.73;13.32;;;;;;;25.24;43.34;100102.69;4880954;29;20045;-80
2021/09/12 10:12:44;;;;;;;15.35;13.80;;;;;;;25.14;43.53;100094.06;4881206;29;20052;-79
2021/09/12 10:15:17;;;;;;;17.17;13.40;;;;;;;25.10;43.44;100095.44;4880454;29;20128;-79
2021/09/12 10:17:46;;;;;;;21.13;13.85;;;;;;;25.01;43.36;100095.44;4880058;29;20049;-80
2021/09/12 10:20:15;;;;;;;14.32;12.77;;;;;;;25.17;43.67;100093.75;4879505;29;20500;-81
2021/09/12 10:22:49;;;;;;;13.70;12.32;;;;;;;25.36;43.48;100093.31;4879551;29;20424;-80
2021/09/12 10:25:20;;;;;;;13.13;11.82;;;;;;;25.75;42.36;100087.06;4880062;29;20057;-83
2021/09/12 10:28:07;;;;;;;13.10;11.85;;;;;;;25.44;42.58;100089.75;4878807;29;20093;-81
2021/09/12 10:30:40;;;;;;;13.00;10.98;;;;;;;25.63;42.64;100083.94;4876519;29;20061;-84
2021/09/12 10:33:13;;;;;;;14.25;11.85;;;;;;;25.37;42.29;100084.28;4879396;29;20441;-84
2021/09/12 10:35:45;;;;;;;13.57;12.23;;;;;;;25.71;42.24;100085.72;4879957;29;20507;-84
2021/09/12 10:38:34;;;;;;;13.68;12.25;;;;;;;25.45;42.55;100075.38;4893858;29;20400;-83
2021/09/12 10:41:03;;;;;;;15.02;13.65;;;;;;;25.91;41.20;100076.25;4878690;29;20049;-83
2021/09/12 10:43:50;;;;;;;13.18;11.98;;;;;;;25.36;42.11;100079.97;4874775;29;20041;-82
2021/09/12 10:46:16;;;;;;;11.10;10.07;;;;;;;25.62;41.20;100076.97;4878257;29;20041;-84
2021/09/12 10:49:01;;;;;;;11.02;9.93;;;;;;;25.95;40.31;100077.56;4879376;29;20041;-83
2021/09/12 10:51:30;;;;;;;11.20;10.30;;;;;;;25.77;41.01;100075.19;4877857;29;20084;-81
2021/09/12 10:53:59;;;;;;;15.65;11.68;;;;;;;26.00;40.56;100069.81;4878755;29;20045;-81
2021/09/12 10:56:31;;;;;;;15.52;14.25;;;;;;;25.99;40.26;100075.31;4879043;29;20045;-80
2021/09/12 10:59:09;;;;;;;16.58;14.88;;;;;;;26.20;39.95;100078.13;4879984;29;20586;-84
2021/09/12 11:01:42;;;;;;;12.13;11.02;;;;;;;26.10;39.06;100069.56;4877241;29;20044;-83
2021/09/12 11:04:11;;;;;;;12.20;11.20;;;;;;;25.86;39.80;100073.28;4879878;29;20060;-81
2021/09/12 11:06:42;;;;;;;13.20;11.52;;;;;;;25.83;40.59;100062.94;4878790;29;20057;-81
2021/09/12 11:09:18;;;;;;;14.05;10.45;;;;;;;26.49;39.18;100072.03;4879707;29;20052;-80
2021/09/12 11:11:45;;;;;;;13.68;10.52;;;;;;;25.85;39.61;100063.63;4893466;29;20519;-82
2021/09/12 11:14:19;;;;;;;11.23;9.77;;;;;;;26.42;38.54;100065.78;4878907;29;20049;-80